createdAt,value
2018-09-04T00:01:13.332Z,25.37
2018-09-04T00:03:41.781Z,22.43
2018-09-04T00:06:10.262Z,25.93
2018-09-04T00:08:38.733Z,22.57
2018-09-04T00:11:07.258Z,22.83
2018-09-04T00:13:35.689Z,22.37
2018-09-04T00:16:10.354Z,23.13
2018-09-04T00:18:40.085Z,25.03
2018-09-04T00:21:08.787Z,25.00
2018-09-04T00:23:37.443Z,26.33
2018-09-04T00:26:06.066Z,25.70
2018-09-04T00:28:34.564Z,24.40
2018-09-04T00:31:03.056Z,27.50
2018-09-04T00:33:31.537Z,30.20
2018-09-04T00:36:00.034Z,33.53
2018-09-04T00:38:28.501Z,25.03
2018-09-04T00:40:57.001Z,26.33
2018-09-04T00:43:25.484Z,31.00
2018-09-04T00:46:57.298Z,26.77
2018-09-04T00:49:25.810Z,24.87
2018-09-04T00:51:54.542Z,28.80
2018-09-04T00:54:22.993Z,36.23
2018-09-04T00:56:51.504Z,31.93
2018-09-04T00:59:20.026Z,27.57
2018-09-04T01:01:48.594Z,29.17
2018-09-04T01:04:17.139Z,30.87
2018-09-04T01:06:45.616Z,27.10
2018-09-04T01:09:18.385Z,29.87
2018-09-04T01:11:46.889Z,33.00
2018-09-04T01:14:15.425Z,30.03
2018-09-04T01:16:44.169Z,29.97
2018-09-04T01:19:12.714Z,32.33
2018-09-04T01:21:41.241Z,28.87
2018-09-04T01:24:10.428Z,30.57
2018-09-04T01:26:38.872Z,29.07
2018-09-04T01:29:07.721Z,38.80
2018-09-04T01:31:36.268Z,33.10
2018-09-04T01:34:04.728Z,29.93
2018-09-04T01:36:33.561Z,34.90
2018-09-04T01:39:02.093Z,30.13
2018-09-04T01:41:30.603Z,36.57
2018-09-04T01:43:59.076Z,35.63
2018-09-04T01:46:27.565Z,31.13
2018-09-04T01:48:56.020Z,30.70
2018-09-04T01:51:24.526Z,32.13
2018-09-04T01:53:52.986Z,31.80
2018-09-04T01:56:21.458Z,35.80
2018-09-04T01:58:49.972Z,34.53
2018-09-04T02:01:18.801Z,35.70
2018-09-04T02:03:47.221Z,46.30
2018-09-04T02:06:15.700Z,42.17
2018-09-04T02:08:44.196Z,36.20
2018-09-04T02:11:12.672Z,34.67
2018-09-04T02:13:41.156Z,39.57
2018-09-04T02:16:09.685Z,37.07
2018-09-04T02:18:38.141Z,38.67
2018-09-04T02:21:06.596Z,34.47
2018-09-04T02:23:35.085Z,35.60
2018-09-04T02:26:03.574Z,41.47
2018-09-04T02:28:32.077Z,36.77
2018-09-04T02:31:00.833Z,35.90
2018-09-04T02:33:29.340Z,38.67
2018-09-04T02:35:57.810Z,43.07
2018-09-04T02:38:26.276Z,42.47
2018-09-04T02:40:54.756Z,39.50
2018-09-04T02:43:23.246Z,42.17
2018-09-04T02:45:51.793Z,37.80
2018-09-04T02:48:20.321Z,44.80
2018-09-04T02:50:48.825Z,40.77
2018-09-04T02:53:17.278Z,41.30
2018-09-04T02:55:45.752Z,40.83
2018-09-04T02:58:14.257Z,39.53
2018-09-04T03:00:42.748Z,45.30
2018-09-04T03:03:11.237Z,48.23
2018-09-04T03:05:39.680Z,48.03
2018-09-04T03:08:08.165Z,48.23
2018-09-04T03:10:36.673Z,46.53
2018-09-04T03:13:05.130Z,45.43
2018-09-04T03:15:33.601Z,48.40
2018-09-04T03:18:02.095Z,45.13
2018-09-04T03:20:30.569Z,45.20
2018-09-04T03:22:59.098Z,53.57
2018-09-04T03:25:27.520Z,50.73
2018-09-04T03:27:56.031Z,45.30
2018-09-04T03:30:24.567Z,53.37
2018-09-04T03:32:53.081Z,51.93
2018-09-04T03:35:21.589Z,53.27
2018-09-04T03:37:50.057Z,48.53
2018-09-04T03:40:18.549Z,56.57
2018-09-04T03:42:47.109Z,52.50
2018-09-04T03:45:15.596Z,48.53
2018-09-04T03:47:44.105Z,53.20
2018-09-04T03:50:12.557Z,50.30
2018-09-04T03:52:41.066Z,51.60
2018-09-04T03:55:09.533Z,56.10
2018-09-04T03:57:38.008Z,59.47
2018-09-04T04:00:06.561Z,55.57
2018-09-04T04:02:35.061Z,51.87
2018-09-04T04:05:03.559Z,51.87
2018-09-04T04:07:32.560Z,53.03
2018-09-04T04:10:01.004Z,54.90
2018-09-04T04:12:29.501Z,50.10
2018-09-04T04:14:57.979Z,51.83
2018-09-04T04:17:26.565Z,53.87
2018-09-04T04:19:55.049Z,52.17
2018-09-04T04:22:23.549Z,51.07
2018-09-04T04:24:52.060Z,49.63
2018-09-04T04:27:20.492Z,52.00
2018-09-04T04:29:49.016Z,57.90
2018-09-04T04:32:17.473Z,49.50
2018-09-04T04:34:46.165Z,58.80
2018-09-04T04:37:14.665Z,48.33
2018-09-04T04:39:43.113Z,56.20
2018-09-04T04:42:12.213Z,58.37
2018-09-04T04:44:41.005Z,54.83
2018-09-04T04:47:10.444Z,67.33
2018-09-04T04:49:38.885Z,58.87
2018-09-04T04:52:07.385Z,62.33
2018-09-04T04:54:35.868Z,55.60
2018-09-04T04:57:04.385Z,53.23
2018-09-04T04:59:32.913Z,56.57
2018-09-04T05:02:01.462Z,54.03
2018-09-04T05:04:29.972Z,51.53
2018-09-04T05:06:58.484Z,59.40
2018-09-04T05:09:27.085Z,55.70
2018-09-04T05:11:55.544Z,48.70
2018-09-04T05:14:24.016Z,56.47
2018-09-04T05:16:52.502Z,52.60
2018-09-04T05:19:21.008Z,53.80
2018-09-04T05:21:49.459Z,52.47
2018-09-04T05:24:17.947Z,52.03
2018-09-04T05:26:46.441Z,52.90
2018-09-04T05:29:14.950Z,49.03
2018-09-04T05:31:51.580Z,51.63
2018-09-04T05:34:21.863Z,50.30
2018-09-04T05:36:50.505Z,52.27
2018-09-04T05:39:19.009Z,53.40
2018-09-04T05:41:47.473Z,46.27
2018-09-04T05:44:15.980Z,47.73
2018-09-04T05:46:46.740Z,49.70
2018-09-04T05:49:17.781Z,54.70
2018-09-04T05:51:46.336Z,44.87
2018-09-04T05:54:14.919Z,47.40
2018-09-04T05:56:43.341Z,47.70
2018-09-04T05:59:11.885Z,44.60
2018-09-04T06:01:40.311Z,51.27
2018-09-04T06:04:08.826Z,48.07
2018-09-04T06:06:37.296Z,52.70
2018-09-04T06:09:06.812Z,55.00
2018-09-04T06:11:35.253Z,49.33
2018-09-04T06:14:04.817Z,59.53
2018-09-04T06:16:33.323Z,62.10
2018-09-04T06:19:01.929Z,54.00
2018-09-04T06:21:30.445Z,53.43
2018-09-04T06:23:59.008Z,50.97
2018-09-04T06:26:27.525Z,49.53
2018-09-04T06:28:56.008Z,48.10
2018-09-04T06:31:24.472Z,51.77
2018-09-04T06:33:53.183Z,52.57
2018-09-04T06:36:21.897Z,57.33
2018-09-04T06:38:50.421Z,58.57
2018-09-04T06:41:18.931Z,53.43
2018-09-04T06:43:47.369Z,55.63
2018-09-04T06:46:15.894Z,54.30
2018-09-04T06:48:44.353Z,62.13
2018-09-04T06:51:12.835Z,66.23
2018-09-04T06:53:41.340Z,58.87
2018-09-04T06:56:09.808Z,57.47
2018-09-04T06:58:38.261Z,52.63
2018-09-04T07:01:06.761Z,62.63
2018-09-04T07:03:35.236Z,51.87
2018-09-04T07:06:03.756Z,52.43
2018-09-04T07:08:32.181Z,57.80
2018-09-04T07:11:00.713Z,50.43
2018-09-04T07:13:29.204Z,57.77
2018-09-04T07:15:57.665Z,58.63
2018-09-04T07:18:26.144Z,55.10
2018-09-04T07:20:54.669Z,64.13
2018-09-04T07:23:23.228Z,54.37
2018-09-04T07:25:51.665Z,58.93
2018-09-04T07:28:20.114Z,60.73
2018-09-04T07:30:48.684Z,61.23
2018-09-04T07:34:41.540Z,58.83
2018-09-04T07:37:10.088Z,57.40
2018-09-04T07:39:38.958Z,60.53
2018-09-04T07:42:07.456Z,68.77
2018-09-04T07:44:36.031Z,65.33
2018-09-04T07:47:04.588Z,63.03
2018-09-04T07:49:33.121Z,49.73
2018-09-04T07:52:01.608Z,62.43
2018-09-04T07:54:30.078Z,54.87
2018-09-04T07:56:58.633Z,55.90
2018-09-04T07:59:27.125Z,55.30
2018-09-04T08:01:55.635Z,52.97
2018-09-04T08:04:24.106Z,53.53
2018-09-04T08:06:52.621Z,49.50
2018-09-04T08:09:21.101Z,51.00
2018-09-04T08:11:49.529Z,46.43
2018-09-04T08:14:18.013Z,46.30
2018-09-04T08:16:46.502Z,41.57
2018-09-04T08:19:19.390Z,44.40
2018-09-04T08:21:47.869Z,40.23
2018-09-04T08:24:16.268Z,48.00
2018-09-04T08:26:44.742Z,42.57
2018-09-04T08:29:13.197Z,41.20
2018-09-04T08:31:41.713Z,46.73
2018-09-04T08:34:10.169Z,34.70
2018-09-04T08:36:38.665Z,39.67
2018-09-04T08:39:08.444Z,36.77
2018-09-04T08:41:37.004Z,39.67
2018-09-04T08:44:05.447Z,40.00
2018-09-04T08:46:33.945Z,35.87
2018-09-04T08:49:02.386Z,37.53
2018-09-04T08:51:30.944Z,30.00
2018-09-04T08:53:59.437Z,32.80
2018-09-04T08:56:28.109Z,30.07
2018-09-04T08:58:56.644Z,34.57
2018-09-04T09:01:25.137Z,32.70
2018-09-04T09:03:53.687Z,38.50
2018-09-04T09:06:22.177Z,36.40
2018-09-04T09:08:50.649Z,36.93
2018-09-04T09:11:19.207Z,35.03
2018-09-04T09:13:47.750Z,33.20
2018-09-04T09:16:16.198Z,31.50
2018-09-04T09:18:44.685Z,32.73
2018-09-04T09:21:13.193Z,37.83
2018-09-04T09:23:41.628Z,35.57
2018-09-04T09:26:10.128Z,30.10
2018-09-04T09:28:38.608Z,35.87
2018-09-04T09:31:07.130Z,26.47
2018-09-04T09:33:35.637Z,26.83
2018-09-04T09:36:04.080Z,32.73
2018-09-04T09:38:32.566Z,30.37
2018-09-04T09:41:01.018Z,31.80
2018-09-04T09:43:29.549Z,28.73
2018-09-04T09:45:58.029Z,29.93
2018-09-04T09:48:31.798Z,27.47
2018-09-04T09:51:00.354Z,32.93
2018-09-04T09:53:29.175Z,25.77
2018-09-04T09:55:57.445Z,34.47
2018-09-04T09:58:25.952Z,23.13
2018-09-04T10:00:58.660Z,21.50
2018-09-04T10:03:33.336Z,20.87
2018-09-04T10:06:01.821Z,19.87
2018-09-04T10:08:30.367Z,18.83
2018-09-04T10:10:58.920Z,18.97
2018-09-04T10:13:27.490Z,18.17
2018-09-04T10:15:55.936Z,19.50
2018-09-04T10:18:24.688Z,20.50
2018-09-04T10:20:53.213Z,24.47
2018-09-04T10:23:21.767Z,22.10
2018-09-04T10:25:50.466Z,22.17
2018-09-04T10:28:19.013Z,22.47
2018-09-04T10:30:47.488Z,19.93
2018-09-04T10:33:15.931Z,40.47
2018-09-04T10:35:44.453Z,62.73
2018-09-04T10:38:12.917Z,21.63
2018-09-04T10:40:43.273Z,57.83
2018-09-04T10:43:11.685Z,27.00
2018-09-04T10:45:45.532Z,55.30
2018-09-04T10:48:15.331Z,17.57
2018-09-04T10:51:47.298Z,20.07
2018-09-04T10:54:15.843Z,15.40
2018-09-04T10:56:44.404Z,14.80
2018-09-04T10:59:12.875Z,15.97
2018-09-04T11:01:41.408Z,13.50
2018-09-04T11:04:09.937Z,16.77
2018-09-04T11:06:38.396Z,15.60
2018-09-04T11:09:09.969Z,13.20
2018-09-04T11:11:39.476Z,11.40
2018-09-04T11:14:07.933Z,10.97
2018-09-04T11:16:36.446Z,13.53
2018-09-04T11:19:04.897Z,14.73
2018-09-04T11:21:33.406Z,21.17
2018-09-04T11:24:01.857Z,14.57
2018-09-04T11:26:30.380Z,13.37
2018-09-04T11:29:01.946Z,16.13
2018-09-04T11:31:30.472Z,14.03
2018-09-04T11:33:58.972Z,12.87
2018-09-04T11:36:27.447Z,13.07
2018-09-04T11:38:55.948Z,16.17
2018-09-04T11:41:24.462Z,28.33
2018-09-04T11:43:52.901Z,15.00
2018-09-04T11:46:21.411Z,50.40
2018-09-04T11:48:50.070Z,34.73
2018-09-04T11:51:18.520Z,21.20
2018-09-04T11:53:47.025Z,15.50
2018-09-04T11:56:19.426Z,29.17
2018-09-04T11:58:48.412Z,23.10
2018-09-04T12:01:18.875Z,21.30
2018-09-04T12:03:47.467Z,17.13
2018-09-04T12:06:15.977Z,26.47
2018-09-04T12:08:44.483Z,27.07
2018-09-04T12:11:12.941Z,15.23
2018-09-04T12:13:41.494Z,20.97
2018-09-04T12:16:10.001Z,14.83
2018-09-04T12:18:38.505Z,17.13
2018-09-04T12:21:11.140Z,13.57
2018-09-04T12:23:39.785Z,13.93
2018-09-04T12:26:09.477Z,17.47
2018-09-04T12:28:38.059Z,16.20
2018-09-04T12:31:07.319Z,13.50
2018-09-04T12:33:35.865Z,15.03
2018-09-04T12:36:04.428Z,14.87
2018-09-04T12:38:36.536Z,13.27
2018-09-04T12:41:08.138Z,14.03
2018-09-04T12:43:38.273Z,13.10
2018-09-04T12:46:07.162Z,26.07
2018-09-04T12:48:35.659Z,17.63
2018-09-04T12:51:04.221Z,14.03
2018-09-04T12:53:33.655Z,13.27
2018-09-04T12:56:02.227Z,12.87
2018-09-04T12:58:30.716Z,13.57
2018-09-04T13:00:59.652Z,12.97
2018-09-04T13:03:29.289Z,14.50
2018-09-04T13:05:57.864Z,14.63
2018-09-04T13:08:29.045Z,16.00
2018-09-04T13:10:57.542Z,15.00
2018-09-04T13:13:26.085Z,15.57
2018-09-04T13:15:56.277Z,15.70
2018-09-04T13:18:25.303Z,15.20
2018-09-04T13:20:57.987Z,14.63
2018-09-04T13:23:27.209Z,14.37
2018-09-04T13:25:55.791Z,15.10
2018-09-04T13:28:24.732Z,14.53
2018-09-04T13:32:17.481Z,15.00
2018-09-04T13:34:45.987Z,14.10
2018-09-04T13:37:14.468Z,14.33
2018-09-04T13:39:42.993Z,14.37
2018-09-04T13:42:19.092Z,14.60
2018-09-04T13:44:47.601Z,12.80
2018-09-04T13:47:16.619Z,14.73
2018-09-04T13:49:45.209Z,17.33
2018-09-04T13:52:14.994Z,14.73
2018-09-04T13:54:43.535Z,16.70
2018-09-04T13:57:12.114Z,14.30
2018-09-04T13:59:40.553Z,35.43
2018-09-04T14:02:09.405Z,14.70
2018-09-04T14:04:38.085Z,15.67
2018-09-04T14:07:06.660Z,17.20
2018-09-04T14:09:38.039Z,16.17
2018-09-04T14:12:07.125Z,15.13
2018-09-04T14:14:36.470Z,14.07
2018-09-04T14:17:06.097Z,17.30
2018-09-04T14:19:34.978Z,15.27
2018-09-04T14:22:03.525Z,15.03
2018-09-04T14:24:32.084Z,15.43
2018-09-04T14:27:00.680Z,12.77
2018-09-04T14:31:58.613Z,12.53
2018-09-04T14:34:27.087Z,12.57
2018-09-04T14:36:55.655Z,14.50
2018-09-04T14:39:24.088Z,15.30
2018-09-04T14:41:52.545Z,15.47
2018-09-04T14:44:21.029Z,15.17
2018-09-04T14:46:49.550Z,18.73
2018-09-04T14:49:18.143Z,16.00
2018-09-04T14:51:46.700Z,13.83
2018-09-04T14:54:15.189Z,13.97
2018-09-04T14:56:43.760Z,15.20
2018-09-04T14:59:12.244Z,13.83
2018-09-04T15:01:40.696Z,14.83
2018-09-04T15:04:09.280Z,19.93
2018-09-04T15:06:37.740Z,15.03
2018-09-04T15:09:10.180Z,14.17
2018-09-04T15:11:38.785Z,13.53
2018-09-04T15:14:07.342Z,14.93
2018-09-04T15:16:35.892Z,15.30
2018-09-04T15:19:04.424Z,14.27
2018-09-04T15:21:32.838Z,13.93
2018-09-04T15:24:01.546Z,14.60
2018-09-04T15:26:30.043Z,13.20
2018-09-04T15:28:58.477Z,18.07
2018-09-04T15:31:27.064Z,13.93
2018-09-04T15:33:55.618Z,12.80
2018-09-04T15:36:24.145Z,19.23
2018-09-04T15:38:52.740Z,16.50
2018-09-04T15:41:21.392Z,15.00
2018-09-04T15:43:49.889Z,17.03
2018-09-04T15:46:18.414Z,17.87
2018-09-04T15:48:51.078Z,17.13
2018-09-04T15:51:19.569Z,11.47
2018-09-04T15:53:48.004Z,12.20
2018-09-04T15:56:16.494Z,20.80
2018-09-04T15:58:44.987Z,14.37
2018-09-04T16:01:13.473Z,31.60
2018-09-04T16:03:41.973Z,19.17
2018-09-04T16:06:10.418Z,22.90
2018-09-04T16:08:38.888Z,24.50
2018-09-04T16:11:07.460Z,22.50
2018-09-04T16:13:36.348Z,22.47
2018-09-04T16:16:04.888Z,26.77
2018-09-04T16:18:33.369Z,28.60
2018-09-04T16:21:01.997Z,26.40
2018-09-04T16:23:30.557Z,25.90
2018-09-04T16:25:59.675Z,23.83
2018-09-04T16:28:28.245Z,25.20
2018-09-04T16:30:57.619Z,23.63
2018-09-04T16:33:26.093Z,24.80
2018-09-04T16:35:54.890Z,25.77
2018-09-04T16:38:23.535Z,27.70
2018-09-04T16:40:52.112Z,30.37
2018-09-04T16:43:20.648Z,33.37
2018-09-04T16:45:49.148Z,31.50
2018-09-04T16:48:17.593Z,31.57
2018-09-04T16:50:46.168Z,32.03
2018-09-04T16:53:14.670Z,29.87
2018-09-04T16:55:43.405Z,26.53
2018-09-04T16:58:11.997Z,28.47
2018-09-04T17:00:40.568Z,29.80
2018-09-04T17:03:09.514Z,30.40
2018-09-04T17:05:38.124Z,29.87
2018-09-04T17:08:06.660Z,31.63
2018-09-04T17:10:35.177Z,31.47
2018-09-04T17:13:03.788Z,31.77
2018-09-04T17:15:32.339Z,32.30
2018-09-04T17:18:00.908Z,35.37
2018-09-04T17:20:29.724Z,38.03
2018-09-04T17:22:58.296Z,40.33
2018-09-04T17:25:26.824Z,33.70
2018-09-04T17:27:55.363Z,30.83
2018-09-04T17:30:23.890Z,54.87
2018-09-04T17:32:53.204Z,30.53
2018-09-04T17:35:22.254Z,29.30
2018-09-04T17:37:50.695Z,29.83
2018-09-04T17:40:19.245Z,28.23
2018-09-04T17:42:48.345Z,29.33
2018-09-04T17:45:16.876Z,29.67
2018-09-04T17:47:45.409Z,33.53
2018-09-04T17:50:13.850Z,35.37
2018-09-04T17:52:43.294Z,35.33
2018-09-04T17:55:11.850Z,38.93
2018-09-04T17:57:40.288Z,39.03
2018-09-04T18:00:08.910Z,40.40
2018-09-04T18:02:37.352Z,52.27
2018-09-04T18:05:05.968Z,52.07
2018-09-04T18:07:34.409Z,58.80
2018-09-04T18:10:02.964Z,60.63
2018-09-04T18:12:31.375Z,67.23
2018-09-04T18:14:59.889Z,65.03
2018-09-04T18:17:28.438Z,58.23
2018-09-04T18:19:57.016Z,54.60
2018-09-04T18:22:25.578Z,50.77
2018-09-04T18:24:54.145Z,53.37
2018-09-04T18:27:22.599Z,50.30
2018-09-04T18:29:51.097Z,48.53
2018-09-04T18:32:19.543Z,47.93
2018-09-04T18:34:48.068Z,44.77
2018-09-04T18:37:16.569Z,44.57
2018-09-04T18:39:45.338Z,47.20
2018-09-04T18:42:13.850Z,44.67
2018-09-04T18:44:42.402Z,39.20
2018-09-04T18:47:10.900Z,43.77
2018-09-04T18:49:39.413Z,51.00
2018-09-04T18:52:08.293Z,47.83
2018-09-04T18:54:36.868Z,40.90
2018-09-04T18:58:29.942Z,35.60
2018-09-04T19:00:58.497Z,37.83
2018-09-04T19:03:27.050Z,40.00
2018-09-04T19:05:55.653Z,45.40
2018-09-04T19:08:24.143Z,41.63
2018-09-04T19:10:52.646Z,40.00
2018-09-04T19:13:21.252Z,39.70
2018-09-04T20:01:37.881Z,35.50
2018-09-04T20:04:06.452Z,41.00
2018-09-04T20:06:35.157Z,38.10
2018-09-04T20:09:04.755Z,41.73
2018-09-04T20:11:33.680Z,41.17
2018-09-04T20:14:02.825Z,41.90
2018-09-04T20:16:31.642Z,39.20
2018-09-04T20:19:00.165Z,38.27
2018-09-04T20:21:28.772Z,38.80
2018-09-04T20:23:57.826Z,39.83
2018-09-04T20:26:26.453Z,40.80
2018-09-04T20:28:54.959Z,37.77
2018-09-04T20:31:23.522Z,46.00
2018-09-04T20:33:52.040Z,43.10
2018-09-04T20:36:20.444Z,42.70
2018-09-04T20:38:48.986Z,45.37
2018-09-04T20:41:17.867Z,46.53
2018-09-04T20:43:46.321Z,47.00
2018-09-04T20:46:14.972Z,44.60
2018-09-04T20:48:43.555Z,47.10
2018-09-04T20:51:12.143Z,49.63
2018-09-04T20:53:40.900Z,60.90
2018-09-04T20:56:09.429Z,47.80
2018-09-04T20:58:49.321Z,52.83
2018-09-04T21:01:29.110Z,48.13
2018-09-04T21:04:08.995Z,54.13
2018-09-04T21:06:43.596Z,56.00
2018-09-04T21:09:25.363Z,50.97
2018-09-04T21:11:53.891Z,47.10
2018-09-04T21:14:22.400Z,48.90
2018-09-04T21:16:51.629Z,49.93
2018-09-04T21:19:20.133Z,51.00
2018-09-04T21:21:48.621Z,48.93
2018-09-04T21:24:17.129Z,52.17
2018-09-04T21:26:45.598Z,54.47
2018-09-04T21:29:14.061Z,49.10
2018-09-04T21:39:13.335Z,51.67
2018-09-04T21:41:41.778Z,54.53
2018-09-04T21:44:10.429Z,53.30
2018-09-04T21:46:38.987Z,50.00
2018-09-04T21:49:07.465Z,54.80
2018-09-04T21:51:35.904Z,55.67
2018-09-04T21:54:04.412Z,50.30
2018-09-04T21:56:32.901Z,50.63
2018-09-04T21:59:01.363Z,55.00
2018-09-04T22:01:29.864Z,52.20
2018-09-04T22:03:58.328Z,48.90
2018-09-04T22:06:26.846Z,53.70
2018-09-04T22:08:55.295Z,53.53
2018-09-04T22:11:23.833Z,52.03
2018-09-04T22:13:52.341Z,49.80
2018-09-04T22:16:20.887Z,56.10
2018-09-04T22:18:49.316Z,54.00
2018-09-04T22:21:17.824Z,55.10
2018-09-04T22:23:46.288Z,49.43
2018-09-04T22:26:14.760Z,53.40
2018-09-04T22:28:43.272Z,50.60
2018-09-04T22:31:11.771Z,50.07
2018-09-04T22:33:40.200Z,55.00
2018-09-04T22:36:08.732Z,51.13
2018-09-04T22:38:37.248Z,54.87
2018-09-04T22:41:05.789Z,53.10
2018-09-04T22:43:34.248Z,55.40
2018-09-04T22:53:13.845Z,57.13
2018-09-04T22:55:42.313Z,57.97
2018-09-04T22:58:10.902Z,60.40
2018-09-04T23:00:39.273Z,57.20
2018-09-04T23:03:07.769Z,57.30
2018-09-04T23:05:36.248Z,56.73
2018-09-04T23:08:04.820Z,56.17
2018-09-04T23:10:33.305Z,56.87
2018-09-04T23:13:01.798Z,56.27
2018-09-04T23:15:30.284Z,58.17
2018-09-04T23:17:58.781Z,61.23
2018-09-04T23:20:27.257Z,56.07
2018-09-04T23:22:55.720Z,59.30
2018-09-04T23:25:24.267Z,55.47
2018-09-04T23:27:52.817Z,63.87
2018-09-04T23:30:21.288Z,58.90
2018-09-04T23:32:49.786Z,54.40
2018-09-04T23:35:18.232Z,53.80
2018-09-04T23:37:46.759Z,50.90
2018-09-04T23:40:15.268Z,54.57
2018-09-04T23:42:43.791Z,54.23
2018-09-04T23:45:13.526Z,52.17
2018-09-04T23:47:42.813Z,52.40
2018-09-04T23:50:11.263Z,47.93
2018-09-04T23:52:39.772Z,54.60
2018-09-04T23:55:08.313Z,53.00
2018-09-04T23:57:37.041Z,48.73
